Alpha Afovos — SZSJ — position and weather

sailwx.info

Track history (hours):
 
Tides and Currents Weather Stations Pressure Air Temp Water Temp Dewpoint Dewpoint Depression Visibility Wind Speed Wind Dir Waves Ship Positions

Alpha Afovos

Last reported at 2015-Jan-28 21:22 UTC. Time now 2015-Mar-03 04:45 UTC.
Position S 32°34' E 112°55'.
Warning: this ship's position is 33 days out of date.

Length 223 m; draft 12.7 m.

Type: Cargo ship. MMSI: 239802000.

Date/timePositionNaut miles runAvg speedWind from/ knotsBaromVisibWave heightAir tempDewpointWater temp
2015-Jan-28 21:22S 32°34' E 112°55'911.2
2015-Jan-28 20:33S 32°41' E 113°02'4611.5
2015-Jan-28 16:33S 33°17' E 113°36'1312.2
2015-Jan-28 15:28S 33°27' E 113°46'1212.3
2015-Jan-28 14:28S 33°36' E 113°56'1112.4
2015-Jan-28 13:33S 33°45' E 114°04'  
2015-Jan-19 11:33S 35°22' E 137°30'1313.2
2015-Jan-19 10:33S 35°18' E 137°46'2412.1
2015-Jan-19 08:33S 35°04' E 138°10'1312.7
2015-Jan-19 07:33S 34°54' E 138°19'1010.4
2015-Jan-19 06:33S 34°47' E 138°28'3 2.2
2015-Jan-19 05:06S 34°50' E 138°31'0 0.0
2015-Jan-19 04:30S 34°50' E 138°31'0 0.0
2015-Jan-19 03:33S 34°50' E 138°31'  
Track history (hours):
 
Tides and Currents Weather Stations Pressure Air Temp Water Temp Dewpoint Dewpoint Depression Visibility Wind Speed Wind Dir Waves Ship Positions

Alpha Afovos

Last reported at 2015-Jan-28 21:22 UTC. Time now 2015-Mar-03 04:45 UTC.
Position S 32°34' E 112°55'.
Warning: this ship's position is 33 days out of date.

Length 223 m; draft 12.7 m.

Type: Cargo ship. MMSI: 239802000.

Date/timePositionNaut miles runAvg speedWind from/ knotsBaromVisibWave heightAir tempDewpointWater temp
2015-Jan-28 21:22S 32°34' E 112°55'911.2
2015-Jan-28 20:33S 32°41' E 113°02'4611.5
2015-Jan-28 16:33S 33°17' E 113°36'1312.2
2015-Jan-28 15:28S 33°27' E 113°46'1212.3
2015-Jan-28 14:28S 33°36' E 113°56'1112.4
2015-Jan-28 13:33S 33°45' E 114°04'  
2015-Jan-19 11:33S 35°22' E 137°30'1313.2
2015-Jan-19 10:33S 35°18' E 137°46'2412.1
2015-Jan-19 08:33S 35°04' E 138°10'1312.7
2015-Jan-19 07:33S 34°54' E 138°19'1010.4
2015-Jan-19 06:33S 34°47' E 138°28'3 2.2
2015-Jan-19 05:06S 34°50' E 138°31'0 0.0
2015-Jan-19 04:30S 34°50' E 138°31'0 0.0
2015-Jan-19 03:33S 34°50' E 138°31'  

Dump ship's entire track history